sensor_id;sensor_type;location;lat;lon;timestamp;pressure;altitude;pressure_sealevel;temperature;humidity
27980;BME280;15315;50.836;4.430;2023-05-17T00:08:48;101998.72;;;13.30;100.00
27980;BME280;15315;50.836;4.430;2023-05-17T00:18:48;101994.34;;;13.13;100.00
27980;BME280;15315;50.836;4.430;2023-05-17T00:28:49;102001.38;;;13.31;100.00
27980;BME280;15315;50.836;4.430;2023-05-17T00:38:49;101995.81;;;12.89;100.00
27980;BME280;15315;50.836;4.430;2023-05-17T00:48:50;101996.38;;;12.49;100.00
27980;BME280;15315;50.836;4.430;2023-05-17T00:58:51;102003.41;;;12.53;100.00
27980;BME280;15315;50.836;4.430;2023-05-17T01:08:52;102004.88;;;12.58;100.00
27980;BME280;15315;50.836;4.430;2023-05-17T01:19:15;102006.66;;;13.19;100.00
27980;BME280;15315;50.836;4.430;2023-05-17T01:29:25;102009.00;;;12.95;100.00
27980;BME280;15315;50.836;4.430;2023-05-17T01:39:27;101999.19;;;12.78;100.00
27980;BME280;15315;50.836;4.430;2023-05-17T01:49:34;102008.97;;;12.81;100.00
27980;BME280;15315;50.836;4.430;2023-05-17T01:59:37;101997.41;;;13.51;100.00
27980;BME280;15315;50.836;4.430;2023-05-17T02:09:39;101988.75;;;13.88;100.00
27980;BME280;15315;50.836;4.430;2023-05-17T02:19:39;101973.91;;;14.08;100.00
27980;BME280;15315;50.836;4.430;2023-05-17T02:29:39;101996.97;;;13.87;100.00
27980;BME280;15315;50.836;4.430;2023-05-17T02:39:40;102015.25;;;13.69;100.00
27980;BME280;15315;50.836;4.430;2023-05-17T02:49:40;102025.31;;;13.53;100.00
27980;BME280;15315;50.836;4.430;2023-05-17T02:59:40;102022.66;;;13.51;100.00
27980;BME280;15315;50.836;4.430;2023-05-17T03:09:41;102024.34;;;13.54;100.00
27980;BME280;15315;50.836;4.430;2023-05-17T03:19:41;102031.88;;;13.49;100.00
27980;BME280;15315;50.836;4.430;2023-05-17T03:29:42;102030.97;;;13.34;100.00
27980;BME280;15315;50.836;4.430;2023-05-17T03:39:42;102050.06;;;13.47;100.00
27980;BME280;15315;50.836;4.430;2023-05-17T03:49:43;102057.72;;;13.25;100.00
27980;BME280;15315;50.836;4.430;2023-05-17T03:59:43;102075.94;;;13.07;100.00
27980;BME280;15315;50.836;4.430;2023-05-17T04:09:43;102076.34;;;13.15;100.00
27980;BME280;15315;50.836;4.430;2023-05-17T04:19:44;102079.91;;;13.31;100.00
27980;BME280;15315;50.836;4.430;2023-05-17T04:29:44;102090.28;;;13.39;100.00
27980;BME280;15315;50.836;4.430;2023-05-17T04:39:45;102103.09;;;13.81;100.00
27980;BME280;15315;50.836;4.430;2023-05-17T04:49:45;102096.41;;;14.14;100.00
27980;BME280;15315;50.836;4.430;2023-05-17T04:59:46;102098.72;;;14.35;100.00
27980;BME280;15315;50.836;4.430;2023-05-17T05:09:47;102119.84;;;14.44;100.00
27980;BME280;15315;50.836;4.430;2023-05-17T05:19:47;102134.09;;;13.91;100.00
27980;BME280;15315;50.836;4.430;2023-05-17T05:29:47;102150.00;;;14.39;100.00
27980;BME280;15315;50.836;4.430;2023-05-17T05:39:48;102157.25;;;14.10;100.00
27980;BME280;15315;50.836;4.430;2023-05-17T05:49:48;102169.41;;;13.75;100.00
27980;BME280;15315;50.836;4.430;2023-05-17T05:59:48;102163.88;;;14.49;100.00
27980;BME280;15315;50.836;4.430;2023-05-17T06:09:49;102175.16;;;15.38;100.00
27980;BME280;15315;50.836;4.430;2023-05-17T06:19:49;102189.41;;;15.42;100.00
27980;BME280;15315;50.836;4.430;2023-05-17T06:29:51;102190.16;;;15.71;100.00
27980;BME280;15315;50.836;4.430;2023-05-17T06:39:52;102198.97;;;15.21;100.00
27980;BME280;15315;50.836;4.430;2023-05-17T06:49:53;102198.84;;;14.39;100.00
27980;BME280;15315;50.836;4.430;2023-05-17T06:59:53;102204.94;;;15.40;100.00
27980;BME280;15315;50.836;4.430;2023-05-17T07:09:53;102216.06;;;15.50;100.00
27980;BME280;15315;50.836;4.430;2023-05-17T07:19:54;102205.47;;;15.18;100.00
27980;BME280;15315;50.836;4.430;2023-05-17T07:29:55;102213.44;;;15.07;100.00
27980;BME280;15315;50.836;4.430;2023-05-17T07:39:55;102200.00;;;14.92;100.00
27980;BME280;15315;50.836;4.430;2023-05-17T07:49:55;102216.97;;;15.63;100.00
27980;BME280;15315;50.836;4.430;2023-05-17T07:59:56;102212.34;;;16.67;100.00
27980;BME280;15315;50.836;4.430;2023-05-17T08:09:56;102225.59;;;16.21;100.00
27980;BME280;15315;50.836;4.430;2023-05-17T08:19:56;102223.09;;;16.81;100.00
27980;BME280;15315;50.836;4.430;2023-05-17T08:29:57;102217.53;;;16.20;100.00
27980;BME280;15315;50.836;4.430;2023-05-17T08:39:58;102226.97;;;14.95;100.00
27980;BME280;15315;50.836;4.430;2023-05-17T08:49:59;102224.06;;;16.17;100.00
27980;BME280;15315;50.836;4.430;2023-05-17T09:00:01;102229.75;;;15.75;99.04
27980;BME280;15315;50.836;4.430;2023-05-17T09:10:11;102216.28;;;16.38;92.10
27980;BME280;15315;50.836;4.430;2023-05-17T09:20:21;102208.13;;;16.38;85.15
27980;BME280;15315;50.836;4.430;2023-05-17T09:30:30;102223.09;;;17.06;83.80
27980;BME280;15315;50.836;4.430;2023-05-17T09:40:31;102222.75;;;16.10;87.03
27980;BME280;15315;50.836;4.430;2023-05-17T09:50:31;102211.75;;;16.12;86.27
27980;BME280;15315;50.836;4.430;2023-05-17T10:00:32;102210.44;;;16.93;77.10
27980;BME280;15315;50.836;4.430;2023-05-17T10:10:33;102197.41;;;16.60;68.54
27980;BME280;15315;50.836;4.430;2023-05-17T10:20:34;102204.88;;;17.43;66.27
27980;BME280;15315;50.836;4.430;2023-05-17T10:30:34;102193.19;;;17.17;62.12
27980;BME280;15315;50.836;4.430;2023-05-17T10:40:35;102197.59;;;17.07;65.37
27980;BME280;15315;50.836;4.430;2023-05-17T10:50:37;102186.13;;;17.15;63.41
27980;BME280;15315;50.836;4.430;2023-05-17T11:00:44;102174.75;;;18.14;61.76
27980;BME280;15315;50.836;4.430;2023-05-17T11:11:07;102173.41;;;17.26;62.57
27980;BME280;15315;50.836;4.430;2023-05-17T11:21:08;102178.47;;;17.20;60.41
27980;BME280;15315;50.836;4.430;2023-05-17T11:31:13;102166.34;;;18.39;55.93
27980;BME280;15315;50.836;4.430;2023-05-17T11:41:20;102163.00;;;18.58;55.08
27980;BME280;15315;50.836;4.430;2023-05-17T11:51:22;102161.41;;;18.55;56.21
27980;BME280;15315;50.836;4.430;2023-05-17T12:01:23;102164.19;;;17.64;54.19
27980;BME280;15315;50.836;4.430;2023-05-17T12:11:24;102153.69;;;18.72;54.02
27980;BME280;15315;50.836;4.430;2023-05-17T12:21:24;102155.94;;;17.29;54.00
27980;BME280;15315;50.836;4.430;2023-05-17T12:31:33;102137.16;;;17.72;51.05
27980;BME280;15315;50.836;4.430;2023-05-17T12:41:36;102141.16;;;18.47;49.29
27980;BME280;15315;50.836;4.430;2023-05-17T12:51:44;102145.97;;;17.41;51.11
27980;BME280;15315;50.836;4.430;2023-05-17T13:01:50;102136.16;;;18.08;50.42
27980;BME280;15315;50.836;4.430;2023-05-17T13:11:52;102119.09;;;19.78;46.55
27980;BME280;15315;50.836;4.430;2023-05-17T13:21:53;102138.50;;;18.01;47.87
27980;BME280;15315;50.836;4.430;2023-05-17T13:31:54;102123.06;;;19.22;45.49
27980;BME280;15315;50.836;4.430;2023-05-17T13:41:54;102114.72;;;18.81;46.57
27980;BME280;15315;50.836;4.430;2023-05-17T13:51:54;102112.59;;;20.00;45.40
27980;BME280;15315;50.836;4.430;2023-05-17T14:01:55;102118.34;;;20.78;44.49
27980;BME280;15315;50.836;4.430;2023-05-17T14:11:57;102120.78;;;20.51;44.14
27980;BME280;15315;50.836;4.430;2023-05-17T14:21:57;102115.75;;;19.43;43.78
27980;BME280;15315;50.836;4.430;2023-05-17T14:31:58;102112.06;;;20.06;45.33
27980;BME280;15315;50.836;4.430;2023-05-17T14:41:58;102116.59;;;19.75;45.19
27980;BME280;15315;50.836;4.430;2023-05-17T14:51:58;102107.88;;;20.63;44.63
27980;BME280;15315;50.836;4.430;2023-05-17T15:01:59;102112.59;;;19.59;45.19
27980;BME280;15315;50.836;4.430;2023-05-17T15:11:59;102112.31;;;17.99;44.99
27980;BME280;15315;50.836;4.430;2023-05-17T15:22:00;102106.72;;;19.43;45.57
27980;BME280;15315;50.836;4.430;2023-05-17T15:32:01;102097.72;;;19.93;44.60
27980;BME280;15315;50.836;4.430;2023-05-17T15:42:01;102101.69;;;21.39;43.49
27980;BME280;15315;50.836;4.430;2023-05-17T15:52:02;102122.03;;;18.91;45.48
27980;BME280;15315;50.836;4.430;2023-05-17T16:02:02;102112.41;;;20.13;43.68
27980;BME280;15315;50.836;4.430;2023-05-17T16:12:03;102113.22;;;20.34;44.37
27980;BME280;15315;50.836;4.430;2023-05-17T16:22:04;102119.63;;;19.41;45.21
27980;BME280;15315;50.836;4.430;2023-05-17T16:32:05;102103.94;;;23.90;39.07
27980;BME280;15315;50.836;4.430;2023-05-17T16:42:06;102089.91;;;26.39;34.94
27980;BME280;15315;50.836;4.430;2023-05-17T16:52:07;102084.44;;;26.62;33.86
27980;BME280;15315;50.836;4.430;2023-05-17T17:02:08;102104.13;;;28.19;32.14
27980;BME280;15315;50.836;4.430;2023-05-17T17:12:10;102093.22;;;27.81;31.09
27980;BME280;15315;50.836;4.430;2023-05-17T17:22:10;102098.06;;;29.25;31.64
27980;BME280;15315;50.836;4.430;2023-05-17T17:32:13;102110.72;;;25.71;32.86
27980;BME280;15315;50.836;4.430;2023-05-17T17:42:13;102118.47;;;24.51;34.67
27980;BME280;15315;50.836;4.430;2023-05-17T17:52:14;102120.47;;;23.37;36.31
27980;BME280;15315;50.836;4.430;2023-05-17T18:02:14;102120.44;;;22.01;38.34
27980;BME280;15315;50.836;4.430;2023-05-17T18:12:14;102135.00;;;21.06;40.36
27980;BME280;15315;50.836;4.430;2023-05-17T18:22:15;102133.72;;;21.19;40.65
27980;BME280;15315;50.836;4.430;2023-05-17T18:32:16;102133.00;;;20.77;41.50
27980;BME280;15315;50.836;4.430;2023-05-17T18:42:16;102134.47;;;20.00;42.70
27980;BME280;15315;50.836;4.430;2023-05-17T18:52:16;102127.63;;;20.66;42.09
27980;BME280;15315;50.836;4.430;2023-05-17T19:02:17;102140.41;;;19.64;44.02
27980;BME280;15315;50.836;4.430;2023-05-17T19:12:17;102152.16;;;19.12;46.18
27980;BME280;15315;50.836;4.430;2023-05-17T19:22:17;102151.22;;;18.80;47.30
27980;BME280;15315;50.836;4.430;2023-05-17T19:32:18;102165.84;;;18.90;47.69
27980;BME280;15315;50.836;4.430;2023-05-17T19:42:19;102165.50;;;18.50;48.98
27980;BME280;15315;50.836;4.430;2023-05-17T19:52:20;102171.66;;;18.19;50.29
27980;BME280;15315;50.836;4.430;2023-05-17T20:02:20;102173.88;;;18.14;50.84
27980;BME280;15315;50.836;4.430;2023-05-17T20:12:20;102175.75;;;18.02;51.38
27980;BME280;15315;50.836;4.430;2023-05-17T20:22:23;102184.59;;;16.98;54.77
27980;BME280;15315;50.836;4.430;2023-05-17T20:32:23;102184.84;;;17.08;55.51
27980;BME280;15315;50.836;4.430;2023-05-17T20:42:25;102191.00;;;17.22;58.31
27980;BME280;15315;50.836;4.430;2023-05-17T20:52:27;102200.47;;;16.68;64.00
27980;BME280;15315;50.836;4.430;2023-05-17T21:02:27;102202.81;;;16.85;63.64
27980;BME280;15315;50.836;4.430;2023-05-17T21:12:27;102203.47;;;16.89;61.86
27980;BME280;15315;50.836;4.430;2023-05-17T21:22:28;102207.66;;;16.69;61.11
27980;BME280;15315;50.836;4.430;2023-05-17T21:32:28;102194.59;;;16.61;62.46
27980;BME280;15315;50.836;4.430;2023-05-17T21:42:29;102193.19;;;16.56;62.17
27980;BME280;15315;50.836;4.430;2023-05-17T21:52:29;102195.13;;;16.79;60.87
27980;BME280;15315;50.836;4.430;2023-05-17T22:02:33;102191.75;;;16.63;60.62
27980;BME280;15315;50.836;4.430;2023-05-17T22:12:34;102197.78;;;16.30;61.48
27980;BME280;15315;50.836;4.430;2023-05-17T22:22:34;102185.06;;;15.91;63.21
27980;BME280;15315;50.836;4.430;2023-05-17T22:32:35;102193.75;;;15.84;63.96
27980;BME280;15315;50.836;4.430;2023-05-17T22:42:36;102200.97;;;15.97;63.50
27980;BME280;15315;50.836;4.430;2023-05-17T22:52:36;102195.97;;;15.91;63.77
27980;BME280;15315;50.836;4.430;2023-05-17T23:02:39;102187.66;;;15.80;64.13
27980;BME280;15315;50.836;4.430;2023-05-17T23:12:40;102190.47;;;15.66;64.43
27980;BME280;15315;50.836;4.430;2023-05-17T23:22:41;102192.06;;;15.56;63.95
27980;BME280;15315;50.836;4.430;2023-05-17T23:32:42;102206.09;;;15.36;63.87
27980;BME280;15315;50.836;4.430;2023-05-17T23:42:45;102191.94;;;15.31;63.44
27980;BME280;15315;50.836;4.430;2023-05-17T23:52:46;102194.31;;;15.09;64.38
